Time;durP1;ratioP1;P1;durP2;ratioP2;P2;SDS_P1;SDS_P2;PMS_P1;PMS_P2;Temp;Humidity;BMP_temperature;BMP_pressure;BME280_temperature;BME280_humidity;BME280_pressure;Samples;Min_cycle;Max_cycle;Signal;HPM_P1;HPM_P2
2023/07/15 00:00:19;;;;;;;4.45;3.08;;;;;;;20.48;49.29;98697.00;5108161;28;20036;-74
2023/07/15 00:02:46;;;;;;;5.40;2.83;;;;;;;22.08;49.30;98819.66;5107001;28;20051;-74
2023/07/15 00:05:21;;;;;;;4.78;2.95;;;;;;;22.00;49.05;98791.84;5107715;28;20093;-73
2023/07/15 00:07:48;;;;;;;5.90;3.30;;;;;;;22.08;49.36;98840.41;5107722;28;20054;-73
2023/07/15 00:10:15;;;;;;;4.10;2.75;;;;;;;22.46;49.23;98887.47;5107977;28;20067;-74
2023/07/15 00:12:42;;;;;;;4.90;2.97;;;;;;;22.60;49.07;98883.25;5107598;28;20040;-74
2023/07/15 00:15:11;;;;;;;4.13;2.80;;;;;;;22.55;48.79;98886.47;5107851;28;20051;-74
2023/07/15 00:17:40;;;;;;;4.53;3.40;;;;;;;22.58;48.72;98875.31;5107783;28;20054;-73
2023/07/15 00:20:10;;;;;;;4.18;3.08;;;;;;;22.25;49.11;98847.47;5108026;28;20089;-73
2023/07/15 00:22:36;;;;;;;3.83;2.90;;;;;;;22.43;49.46;98877.00;5107946;28;20040;-73
2023/07/15 00:25:05;;;;;;;6.10;2.97;;;;;;;22.39;49.53;98879.16;5107061;28;20052;-73
2023/07/15 00:27:32;;;;;;;4.30;3.35;;;;;;;22.42;49.44;98876.16;5107617;28;20040;-74
2023/07/15 00:30:02;;;;;;;3.97;2.75;;;;;;;22.46;49.19;98879.34;5107872;28;20039;-73
2023/07/15 00:32:34;;;;;;;5.45;2.90;;;;;;;22.30;49.29;98846.97;5108108;28;20051;-73
2023/07/15 00:35:04;;;;;;;3.92;2.92;;;;;;;22.42;49.57;98864.50;5107444;28;20036;-73
2023/07/15 00:37:34;;;;;;;3.63;2.58;;;;;;;21.19;49.78;98674.09;5108569;28;20052;-73
2023/07/15 00:40:03;;;;;;;4.43;3.50;;;;;;;22.42;49.42;98870.75;5091051;28;20036;-73
2023/07/15 00:42:58;;;;;;;4.47;2.95;;;;;;;22.37;49.77;98866.84;5107539;28;20055;-73
2023/07/15 00:45:25;;;;;;;3.97;2.90;;;;;;;22.39;49.56;98865.66;5065047;28;20052;-73
2023/07/15 00:48:03;;;;;;;3.95;3.15;;;;;;;22.02;49.52;98811.41;5108863;28;20044;-73
2023/07/15 00:50:31;;;;;;;5.28;3.10;;;;;;;21.02;49.92;98648.13;5108457;28;20040;-73
2023/07/15 00:52:58;;;;;;;5.95;3.65;;;;;;;22.33;49.75;98870.91;5107273;28;20085;-73
2023/07/15 00:55:27;;;;;;;4.72;3.00;;;;;;;21.91;49.68;98801.81;5108096;28;20070;-73
2023/07/15 00:57:57;;;;;;;5.38;3.15;;;;;;;21.96;49.83;98806.69;5106472;28;20127;-73
2023/07/15 01:00:25;;;;;;;6.15;3.58;;;;;;;22.01;50.83;98864.53;5107395;28;20036;-73
2023/07/15 01:02:53;;;;;;;6.35;3.20;;;;;;;22.16;50.31;98863.84;5107008;28;20051;-73
2023/07/15 01:05:20;;;;;;;6.72;3.35;;;;;;;22.26;49.89;98867.22;5106765;28;20056;-73
2023/07/15 01:07:47;;;;;;;4.95;3.17;;;;;;;22.04;50.55;98845.31;5105676;28;20086;-73
2023/07/15 01:10:14;;;;;;;4.90;3.13;;;;;;;22.04;50.61;98863.34;5105652;28;20061;-73
2023/07/15 01:12:40;;;;;;;3.92;3.20;;;;;;;21.95;50.91;98867.91;5106987;28;20101;-73
2023/07/15 01:15:08;;;;;;;4.07;2.90;;;;;;;21.73;51.43;98844.25;5106931;28;20227;-73
2023/07/15 01:17:34;;;;;;;5.50;3.45;;;;;;;21.98;51.10;98867.56;5106317;28;20043;-72
2023/07/15 01:20:05;;;;;;;4.53;3.03;;;;;;;21.95;51.07;98862.50;5106576;28;20052;-73
2023/07/15 01:22:37;;;;;;;4.60;2.75;;;;;;;22.00;50.90;98870.94;5106589;28;20036;-73
2023/07/15 01:25:05;;;;;;;4.13;2.83;;;;;;;21.94;50.86;98874.31;5105418;28;20044;-73
2023/07/15 01:27:33;;;;;;;4.43;3.28;;;;;;;22.02;50.92;98860.81;5106396;28;20040;-73
2023/07/15 01:30:00;;;;;;;5.25;3.35;;;;;;;22.07;50.62;98865.72;5106151;28;20081;-73
2023/07/15 01:32:27;;;;;;;3.92;2.95;;;;;;;21.81;51.04;98848.84;5106961;28;20047;-72
2023/07/15 01:34:53;;;;;;;5.25;3.05;;;;;;;21.95;51.24;98862.50;5106340;28;20047;-73
2023/07/15 01:37:20;;;;;;;4.05;3.00;;;;;;;21.93;50.73;98858.28;5106310;28;20035;-73
2023/07/15 01:39:49;;;;;;;4.65;3.65;;;;;;;21.96;51.10;98864.19;5105958;28;20053;-73
2023/07/15 01:42:16;;;;;;;5.28;3.55;;;;;;;21.92;51.28;98867.41;5106274;28;20062;-73
2023/07/15 01:44:42;;;;;;;5.18;3.47;;;;;;;21.91;51.29;98858.47;5106195;28;20052;-73
2023/07/15 01:47:10;;;;;;;4.68;3.25;;;;;;;21.81;51.91;98860.47;5105820;28;20050;-73
2023/07/15 01:49:37;;;;;;;4.03;3.53;;;;;;;21.81;52.24;98854.25;5105390;28;20070;-72
2023/07/15 01:52:04;;;;;;;4.88;3.88;;;;;;;21.69;52.56;98864.50;5105812;28;20056;-73
2023/07/15 01:54:31;;;;;;;4.45;3.38;;;;;;;21.50;53.06;98868.34;5106401;28;20048;-73
2023/07/15 01:56:59;;;;;;;5.78;3.20;;;;;;;21.52;53.19;98873.56;5105747;28;20097;-73
2023/07/15 01:59:25;;;;;;;4.45;2.85;;;;;;;21.60;52.91;98873.56;5106046;28;20055;-73
2023/07/15 02:02:02;;;;;;;4.20;3.28;;;;;;;21.54;53.21;98866.16;5106375;28;20109;-72
2023/07/15 02:04:32;;;;;;;4.88;3.65;;;;;;;21.61;52.72;98876.09;5106491;28;20115;-73
2023/07/15 02:07:00;;;;;;;5.20;3.85;;;;;;;20.61;52.60;98699.22;5089596;28;20040;-73
2023/07/15 02:09:27;;;;;;;4.57;3.65;;;;;;;21.60;52.68;98876.28;5106122;28;20047;-73
2023/07/15 02:11:54;;;;;;;5.28;3.85;;;;;;;20.75;52.40;98706.66;5107199;28;20044;-73
2023/07/15 02:14:23;;;;;;;6.70;3.75;;;;;;;21.35;52.79;98829.56;5107102;28;20040;-73
2023/07/15 02:16:50;;;;;;;4.10;3.13;;;;;;;21.23;53.48;98822.78;5107332;28;20040;-73
2023/07/15 02:19:18;;;;;;;5.55;3.55;;;;;;;21.50;52.79;98879.13;5106057;28;20036;-73
2023/07/15 02:21:45;;;;;;;5.78;3.35;;;;;;;21.51;52.31;98861.94;5106830;28;20052;-73
2023/07/15 02:24:11;;;;;;;6.45;3.28;;;;;;;21.36;53.89;98863.59;5106240;28;20036;-73
2023/07/15 02:26:38;;;;;;;4.75;3.55;;;;;;;21.32;53.93;98864.94;5106552;28;20103;-73
2023/07/15 02:29:05;;;;;;;4.78;3.30;;;;;;;21.21;54.24;98860.69;5105693;28;20105;-73
2023/07/15 02:31:34;;;;;;;5.05;3.97;;;;;;;21.24;54.14;98864.91;5105874;28;20188;-72
2023/07/15 02:34:01;;;;;;;5.05;3.10;;;;;;;21.20;53.88;98863.53;5105666;28;20296;-72
2023/07/15 02:36:28;;;;;;;4.97;3.70;;;;;;;21.23;53.61;98872.16;5104551;28;20124;-73
2023/07/15 02:38:55;;;;;;;4.10;3.55;;;;;;;21.11;54.01;98874.31;5105908;28;20063;-73
2023/07/15 02:41:22;;;;;;;4.88;3.90;;;;;;;21.19;54.20;98867.25;5105356;28;20044;-73
2023/07/15 02:43:49;;;;;;;5.43;4.03;;;;;;;21.07;54.49;98872.09;5104458;28;20040;-72
2023/07/15 02:46:15;;;;;;;6.40;4.22;;;;;;;21.04;54.65;98878.66;5105504;28;20047;-73
2023/07/15 02:48:43;;;;;;;4.43;3.25;;;;;;;21.21;53.98;98878.72;5105833;28;20335;-72
2023/07/15 02:51:10;;;;;;;5.25;4.10;;;;;;;21.16;53.86;98871.13;5104366;28;20082;-73
2023/07/15 02:53:39;;;;;;;5.88;3.80;;;;;;;21.02;54.84;98874.41;5105243;28;20300;-73
2023/07/15 02:56:06;;;;;;;4.25;3.30;;;;;;;21.00;55.06;98879.94;5104119;28;20264;-72
2023/07/15 02:58:33;;;;;;;6.10;3.78;;;;;;;20.75;55.62;98872.78;5105185;28;20300;-73
2023/07/15 03:00:59;;;;;;;4.88;3.78;;;;;;;20.93;55.23;98889.69;5105532;28;20044;-73
2023/07/15 03:03:26;;;;;;;5.43;3.53;;;;;;;20.93;54.99;98897.78;5105674;28;20289;-72
2023/07/15 03:05:54;;;;;;;5.15;3.70;;;;;;;20.86;55.38;98894.03;5105035;28;20050;-72
2023/07/15 03:08:21;;;;;;;4.65;3.78;;;;;;;20.35;54.79;98795.34;5105642;28;20036;-73
2023/07/15 03:10:49;;;;;;;4.82;3.20;;;;;;;20.91;55.49;98888.16;5105731;28;20047;-73
2023/07/15 03:13:16;;;;;;;5.25;4.28;;;;;;;20.92;55.08;98884.47;5105641;28;20051;-73
2023/07/15 03:15:43;;;;;;;7.28;6.32;;;;;;;20.86;55.76;98887.78;5105598;28;20285;-73
2023/07/15 03:18:10;;;;;;;5.40;4.65;;;;;;;20.57;55.56;98851.31;5104165;28;20040;-73
2023/07/15 03:20:36;;;;;;;5.10;4.40;;;;;;;20.87;55.31;98893.03;5105365;28;20048;-73
2023/07/15 03:23:04;;;;;;;5.15;3.88;;;;;;;20.86;55.93;98890.50;5107785;28;20062;-72
2023/07/15 03:25:31;;;;;;;4.50;3.47;;;;;;;20.85;55.35;98891.50;5107726;28;20309;-73
2023/07/15 03:27:58;;;;;;;4.28;3.65;;;;;;;20.74;56.32;98885.38;5108730;28;20047;-73
2023/07/15 03:30:26;;;;;;;5.20;3.92;;;;;;;20.74;55.95;98882.69;5108497;28;20204;-73
2023/07/15 03:32:56;;;;;;;6.00;3.65;;;;;;;20.83;55.74;98878.19;5108995;28;20068;-73
2023/07/15 03:35:23;;;;;;;5.28;4.18;;;;;;;20.83;55.74;98878.19;5108982;28;20105;-73
2023/07/15 03:37:49;;;;;;;4.97;3.50;;;;;;;20.83;56.00;98888.97;5108892;28;20082;-73
2023/07/15 03:40:17;;;;;;;4.43;3.63;;;;;;;20.72;56.19;98859.63;5108500;28;20043;-73
2023/07/15 03:42:44;;;;;;;5.00;4.15;;;;;;;20.85;55.70;98891.50;5108256;28;20062;-73
2023/07/15 03:45:11;;;;;;;4.78;3.50;;;;;;;20.70;56.47;98892.09;5108778;28;20089;-73
2023/07/15 03:47:38;;;;;;;4.95;3.72;;;;;;;20.65;56.75;98886.34;5108645;28;20165;-73
2023/07/15 03:50:07;;;;;;;6.05;4.03;;;;;;;20.76;56.51;98891.47;5108071;28;20098;-73
2023/07/15 03:52:34;;;;;;;7.32;4.45;;;;;;;20.71;56.98;98892.94;5108572;28;20043;-73
2023/07/15 03:55:00;;;;;;;5.47;3.92;;;;;;;20.76;56.65;98893.31;5107621;28;20040;-73
2023/07/15 03:57:28;;;;;;;6.40;3.85;;;;;;;20.80;56.72;98902.75;5107868;28;20106;-73
2023/07/15 03:59:55;;;;;;;5.57;4.18;;;;;;;20.53;57.34;98855.31;5107065;28;20044;-73
2023/07/15 04:02:22;;;;;;;5.57;3.85;;;;;;;20.75;57.30;98903.22;5108424;28;20081;-73
2023/07/15 04:04:49;;;;;;;5.32;3.83;;;;;;;20.10;57.46;98797.84;5108039;28;20044;-73
2023/07/15 04:07:16;;;;;;;8.00;4.60;;;;;;;20.74;57.31;98906.94;5108223;28;20097;-73
2023/07/15 04:09:43;;;;;;;4.93;3.90;;;;;;;20.77;57.44;98914.69;5107738;28;20035;-73
2023/07/15 04:12:10;;;;;;;6.22;4.03;;;;;;;20.76;56.98;98913.00;5107895;28;20044;-73
2023/07/15 04:14:38;;;;;;;5.85;4.47;;;;;;;20.23;57.20;98835.13;5089966;28;20403;-73
2023/07/15 04:17:05;;;;;;;5.45;3.72;;;;;;;20.73;57.71;98917.88;5106744;28;20036;-73
2023/07/15 04:19:32;;;;;;;4.72;3.90;;;;;;;20.62;57.47;98902.81;5107766;28;20044;-73
2023/07/15 04:21:58;;;;;;;3.95;3.20;;;;;;;20.79;56.80;98923.44;5107729;28;20055;-73
2023/07/15 04:24:25;;;;;;;5.50;3.70;;;;;;;20.79;57.11;98926.16;5107356;28;20093;-73
2023/07/15 04:26:52;;;;;;;5.22;3.60;;;;;;;20.65;58.41;98915.97;5107532;28;20051;-73
2023/07/15 04:29:18;;;;;;;7.13;4.15;;;;;;;20.69;57.85;98922.72;5107837;28;20048;-73
2023/07/15 04:31:47;;;;;;;6.78;4.28;;;;;;;20.74;57.89;98931.16;5106223;28;20048;-73
2023/07/15 04:34:14;;;;;;;9.07;4.50;;;;;;;20.79;58.15;98928.00;5107491;28;20040;-73
2023/07/15 04:36:41;;;;;;;7.07;3.83;;;;;;;20.82;58.01;98922.28;5107208;28;20048;-73
2023/07/15 04:39:08;;;;;;;4.55;3.70;;;;;;;19.54;58.17;98713.06;5107371;28;20043;-73
2023/07/15 04:41:35;;;;;;;6.40;4.32;;;;;;;20.79;58.68;98920.75;5107020;28;20056;-73
2023/07/15 04:44:03;;;;;;;7.43;3.90;;;;;;;20.29;58.12;98826.41;5107030;28;20052;-73
2023/07/15 04:46:30;;;;;;;4.65;3.90;;;;;;;20.68;58.67;98910.25;5106082;28;20047;-73
2023/07/15 04:48:58;;;;;;;7.90;4.88;;;;;;;20.79;58.88;98936.91;5106909;28;20036;-73
2023/07/15 04:51:25;;;;;;;4.15;3.45;;;;;;;20.89;57.94;98938.66;5106904;28;20052;-73
2023/07/15 04:53:51;;;;;;;4.85;3.78;;;;;;;20.92;58.57;98938.31;5106822;28;20044;-73
2023/07/15 04:56:18;;;;;;;4.38;3.55;;;;;;;20.93;59.07;98940.03;5106791;28;20052;-73
2023/07/15 04:58:45;;;;;;;4.07;3.50;;;;;;;20.81;59.16;98951.06;5107022;28;20303;-73
2023/07/15 05:01:13;;;;;;;5.53;4.25;;;;;;;20.74;58.99;98924.94;5106290;28;20047;-73
2023/07/15 05:03:40;;;;;;;6.85;4.32;;;;;;;20.74;58.27;98939.25;5106872;28;20280;-73
2023/07/15 05:06:08;;;;;;;5.88;4.35;;;;;;;20.92;57.46;98957.19;5105723;28;20048;-73
2023/07/15 05:08:35;;;;;;;6.40;4.35;;;;;;;20.86;57.85;98960.53;5106621;28;20039;-73
2023/07/15 05:11:01;;;;;;;5.30;4.15;;;;;;;20.91;58.28;98968.97;5105598;28;20334;-73
2023/07/15 05:13:29;;;;;;;6.13;4.15;;;;;;;20.94;58.10;98964.09;5105574;28;20105;-73
2023/07/15 05:15:56;;;;;;;6.38;4.43;;;;;;;20.75;57.40;98953.56;5106374;28;20044;-73
2023/07/15 05:18:23;;;;;;;5.70;3.85;;;;;;;20.86;57.69;98974.81;5106385;28;20036;-73
2023/07/15 05:20:50;;;;;;;5.18;3.50;;;;;;;20.94;57.61;98976.72;5106032;28;20223;-73
2023/07/15 05:23:18;;;;;;;6.85;4.35;;;;;;;20.95;57.05;98973.03;5106550;28;20054;-73
2023/07/15 05:25:45;;;;;;;4.80;4.15;;;;;;;20.84;55.97;98974.13;5105374;28;20328;-73
2023/07/15 05:28:12;;;;;;;5.07;3.55;;;;;;;20.95;56.54;98965.78;5106658;28;20089;-73
2023/07/15 05:30:38;;;;;;;6.35;4.30;;;;;;;21.02;56.52;98969.56;5106486;28;20069;-73
2023/07/15 05:33:05;;;;;;;6.60;3.38;;;;;;;21.00;56.33;98973.41;5106105;28;20342;-73
2023/07/15 05:35:32;;;;;;;5.53;4.28;;;;;;;21.05;55.79;98971.09;5106083;28;20047;-73
2023/07/15 05:37:58;;;;;;;4.95;3.50;;;;;;;21.12;55.99;98973.00;5105188;28;20032;-73
2023/07/15 05:40:27;;;;;;;5.60;4.05;;;;;;;21.08;56.07;98966.22;5106011;28;20044;-73
2023/07/15 05:42:53;;;;;;;5.13;4.03;;;;;;;21.11;55.93;98965.91;5105988;28;20078;-73
2023/07/15 05:45:20;;;;;;;6.20;4.00;;;;;;;21.12;56.00;98980.22;5104652;28;20039;-73
2023/07/15 05:47:47;;;;;;;8.05;4.32;;;;;;;21.00;55.63;98976.94;5106092;28;20044;-73
2023/07/15 05:50:14;;;;;;;7.28;3.88;;;;;;;21.16;55.19;98973.50;5105883;28;20067;-73
2023/07/15 05:52:40;;;;;;;7.25;4.38;;;;;;;21.24;55.15;98981.63;5106062;28;20325;-72
2023/07/15 05:55:08;;;;;;;4.85;4.30;;;;;;;21.29;55.70;98981.16;5106095;28;20044;-73
2023/07/15 05:57:36;;;;;;;4.45;3.67;;;;;;;21.28;54.78;98980.31;5106262;28;20174;-73
2023/07/15 06:00:04;;;;;;;4.40;3.70;;;;;;;21.27;54.85;98983.16;5106032;28;20292;-73
2023/07/15 06:02:32;;;;;;;5.82;4.10;;;;;;;21.36;54.45;98980.34;5106060;28;20039;-73
2023/07/15 06:04:58;;;;;;;5.30;3.40;;;;;;;21.37;54.37;98978.50;5106289;28;20051;-73
2023/07/15 06:07:25;;;;;;;5.07;3.80;;;;;;;21.37;54.69;98987.41;5106164;28;20040;-73
2023/07/15 06:09:52;;;;;;;4.47;3.90;;;;;;;21.33;54.57;98986.06;5106161;28;20044;-73
2023/07/15 06:12:19;;;;;;;5.47;3.47;;;;;;;21.32;54.49;98981.66;5105882;28;20062;-73
2023/07/15 06:14:47;;;;;;;7.10;3.65;;;;;;;20.89;54.75;98909.03;5105802;28;20044;-73
2023/07/15 06:17:14;;;;;;;5.10;3.05;;;;;;;21.50;54.60;98988.81;5105533;28;20040;-73
2023/07/15 06:19:40;;;;;;;5.32;3.30;;;;;;;21.59;54.27;98988.69;5104690;28;20361;-73
2023/07/15 06:22:07;;;;;;;5.20;3.40;;;;;;;21.57;54.16;98992.53;5106045;28;20040;-73
2023/07/15 06:24:34;;;;;;;6.90;3.95;;;;;;;20.86;53.69;98868.94;5105614;28;20051;-73
2023/07/15 06:27:01;;;;;;;5.45;3.55;;;;;;;20.97;53.63;98880.28;5105205;28;20052;-73
2023/07/15 06:29:28;;;;;;;4.50;3.90;;;;;;;21.63;54.17;98987.34;5105661;28;20314;-73
2023/07/15 06:31:56;;;;;;;5.55;3.47;;;;;;;21.68;53.16;98990.41;5104482;28;20047;-73
2023/07/15 06:34:23;;;;;;;5.15;4.47;;;;;;;21.70;52.87;98991.06;5105574;28;20052;-73
2023/07/15 06:36:50;;;;;;;5.13;3.70;;;;;;;21.78;53.24;98992.94;5104835;28;20078;-73
2023/07/15 06:39:17;;;;;;;4.72;3.90;;;;;;;21.78;53.79;99001.03;5104753;28;20040;-73
2023/07/15 06:41:43;;;;;;;5.15;3.92;;;;;;;21.73;54.13;98979.13;5105352;28;20066;-73
2023/07/15 06:44:10;;;;;;;5.82;3.33;;;;;;;21.92;53.68;98997.75;5105548;28;20044;-73
2023/07/15 06:46:37;;;;;;;6.07;3.40;;;;;;;22.01;53.67;98996.75;5105584;28;20088;-73
2023/07/15 06:49:05;;;;;;;5.80;4.00;;;;;;;22.15;53.59;98997.09;5105289;28;20040;-73
2023/07/15 06:51:32;;;;;;;4.88;3.97;;;;;;;22.14;53.35;99001.66;5105368;28;20177;-73
2023/07/15 06:53:58;;;;;;;5.20;3.92;;;;;;;22.19;52.38;99004.69;5105473;28;20061;-73
2023/07/15 06:56:25;;;;;;;6.50;4.45;;;;;;;22.22;51.97;98995.41;5106853;28;20079;-74
2023/07/15 06:58:52;;;;;;;5.90;3.83;;;;;;;22.30;52.10;98995.44;5109591;28;20048;-73
2023/07/15 07:01:19;;;;;;;4.75;3.22;;;;;;;22.37;52.18;98997.28;5108208;28;20040;-73
2023/07/15 07:03:46;;;;;;;5.07;3.83;;;;;;;22.37;51.60;98997.28;5108092;28;20040;-73
2023/07/15 07:06:14;;;;;;;5.60;3.70;;;;;;;22.51;51.35;99003.91;5108579;28;20118;-73
2023/07/15 07:08:41;;;;;;;5.25;4.13;;;;;;;22.57;51.48;98997.84;5109057;28;20093;-73
2023/07/15 07:11:08;;;;;;;4.13;3.10;;;;;;;22.76;52.25;98993.94;5109193;28;20230;-73
2023/07/15 07:13:34;;;;;;;7.60;3.50;;;;;;;22.92;51.72;99001.19;5108740;28;20067;-73
2023/07/15 07:16:01;;;;;;;3.50;2.95;;;;;;;22.95;51.82;98996.28;5107922;28;20036;-73
2023/07/15 07:18:28;;;;;;;5.70;3.63;;;;;;;23.11;51.70;99000.81;5109222;28;20036;-73
2023/07/15 07:20:59;;;;;;;6.38;3.40;;;;;;;23.30;52.30;98992.34;5107726;28;20044;-73
2023/07/15 07:23:27;;;;;;;5.63;3.83;;;;;;;23.46;51.25;98996.00;5108900;28;20044;-73
2023/07/15 07:25:54;;;;;;;4.65;2.75;;;;;;;23.22;51.30;98923.91;5108775;28;20173;-73
2023/07/15 07:28:23;;;;;;;7.07;3.50;;;;;;;23.85;50.60;98991.41;5108804;28;20044;-73
2023/07/15 07:30:50;;;;;;;4.45;3.60;;;;;;;24.01;49.68;98982.38;5108372;28;20089;-73
2023/07/15 07:33:16;;;;;;;4.97;3.95;;;;;;;24.04;49.75;98984.72;5107583;28;20319;-73
2023/07/15 07:35:46;;;;;;;5.13;4.13;;;;;;;24.33;49.84;98987.53;5108911;28;20115;-73
2023/07/15 07:40:36;;;;;;;4.57;3.50;;;;;;;24.66;49.16;98989.16;5103802;28;20618;-73
2023/07/15 07:43:04;;;;;;;5.80;3.70;;;;;;;24.85;48.24;98978.63;5103492;28;20048;-73
2023/07/15 07:45:31;;;;;;;4.90;4.10;;;;;;;24.27;48.03;98879.97;5103575;28;20043;-73
2023/07/15 07:47:59;;;;;;;5.00;3.90;;;;;;;24.88;48.09;98986.41;5102596;28;20047;-73
2023/07/15 07:50:27;;;;;;;5.38;4.28;;;;;;;25.15;48.39;98984.97;5102554;28;20055;-73
2023/07/15 07:52:53;;;;;;;5.43;3.97;;;;;;;25.30;47.78;98984.97;5102802;28;20051;-72
2023/07/15 07:55:20;;;;;;;6.85;4.63;;;;;;;25.42;46.85;98971.78;5102783;28;20196;-73
2023/07/15 07:57:48;;;;;;;5.43;3.08;;;;;;;25.54;47.04;98997.41;5103081;28;20093;-72
2023/07/15 08:00:16;;;;;;;4.35;3.85;;;;;;;25.68;46.38;98988.41;5103171;28;20044;-73
2023/07/15 08:02:42;;;;;;;5.22;3.78;;;;;;;25.80;46.95;98992.31;5101999;28;20040;-73
2023/07/15 08:05:09;;;;;;;6.10;4.10;;;;;;;25.97;46.90;98992.06;5102699;28;20208;-73
2023/07/15 08:07:36;;;;;;;5.18;4.07;;;;;;;26.07;46.00;98996.19;5103167;28;20040;-74
2023/07/15 08:10:04;;;;;;;4.85;3.13;;;;;;;26.20;46.24;98996.34;5103162;28;20059;-74
2023/07/15 08:12:30;;;;;;;4.18;3.50;;;;;;;26.43;45.59;98995.31;5102971;28;20056;-73
2023/07/15 08:14:58;;;;;;;4.65;3.53;;;;;;;26.42;44.95;98996.34;5102635;28;20044;-73
2023/07/15 08:17:25;;;;;;;4.18;3.70;;;;;;;26.45;45.21;98999.50;5102585;28;20055;-74
2023/07/15 08:19:53;;;;;;;5.18;3.88;;;;;;;26.49;44.77;98998.06;5102246;28;20064;-74
2023/07/15 08:22:19;;;;;;;4.40;3.47;;;;;;;26.42;44.37;98963.72;5084778;28;20086;-74
2023/07/15 08:24:46;;;;;;;5.47;3.65;;;;;;;26.73;43.92;99001.44;5101259;28;20044;-73
2023/07/15 08:27:13;;;;;;;4.85;3.53;;;;;;;26.90;44.18;99000.13;5102185;28;20327;-73
2023/07/15 08:29:40;;;;;;;6.57;4.10;;;;;;;26.87;43.71;98981.47;5102420;28;20040;-74
2023/07/15 08:32:09;;;;;;;5.68;3.58;;;;;;;26.98;44.27;99002.69;5102291;28;20044;-73
2023/07/15 08:34:36;;;;;;;6.65;3.90;;;;;;;27.29;43.94;98996.00;5102695;28;20055;-74
2023/07/15 08:37:02;;;;;;;6.55;4.70;;;;;;;27.19;43.13;99002.63;5101159;28;20036;-73
2023/07/15 08:39:29;;;;;;;4.63;3.80;;;;;;;27.24;44.30;98993.91;5101908;28;20048;-74
2023/07/15 08:41:58;;;;;;;5.90;3.92;;;;;;;27.43;44.19;99001.31;5101067;28;20044;-72
2023/07/15 08:44:25;;;;;;;5.63;3.60;;;;;;;27.30;43.23;99003.97;5101750;28;20086;-73
2023/07/15 08:46:55;;;;;;;5.03;4.18;;;;;;;27.25;43.34;98981.13;5118482;28;20060;-72
2023/07/15 08:49:24;;;;;;;5.25;3.83;;;;;;;27.48;43.33;99003.44;5102197;28;20048;-73
2023/07/15 08:51:50;;;;;;;5.53;3.97;;;;;;;27.30;42.11;98956.88;5088941;28;20107;-73
2023/07/15 08:54:18;;;;;;;9.30;4.25;;;;;;;27.60;41.93;99003.72;5088375;28;20185;-73
2023/07/15 08:56:45;;;;;;;5.32;4.00;;;;;;;27.48;42.47;98990.69;5088185;28;20244;-73
2023/07/15 08:59:16;;;;;;;4.63;3.95;;;;;;;27.68;41.74;98993.53;5087142;28;20043;-73
2023/07/15 09:01:43;;;;;;;4.88;3.72;;;;;;;27.90;41.27;98987.97;5087151;28;20231;-74
2023/07/15 09:04:09;;;;;;;4.97;3.70;;;;;;;27.94;41.05;98984.63;5086677;28;20044;-73
2023/07/15 09:06:38;;;;;;;6.15;4.10;;;;;;;28.02;41.81;98979.00;5088216;28;20052;-73
2023/07/15 09:09:06;;;;;;;5.00;3.92;;;;;;;27.89;41.76;98978.97;5087816;28;20045;-73
2023/07/15 09:11:39;;;;;;;5.22;3.78;;;;;;;27.93;42.19;98982.13;5087754;28;20052;-73
2023/07/15 09:14:13;;;;;;;6.22;4.40;;;;;;;28.07;42.09;98981.13;5088412;28;20243;-72
2023/07/15 09:16:40;;;;;;;6.95;4.07;;;;;;;27.86;41.45;98979.38;5088366;28;20078;-73
2023/07/15 09:19:07;;;;;;;5.75;3.92;;;;;;;28.02;41.29;98975.44;5087900;28;20284;-73
2023/07/15 09:21:34;;;;;;;4.30;3.30;;;;;;;28.21;40.89;98984.69;5086783;28;20323;-73
2023/07/15 09:24:02;;;;;;;3.65;2.97;;;;;;;28.23;40.59;98979.88;5087576;28;20083;-74
2023/07/15 09:26:30;;;;;;;7.22;3.55;;;;;;;28.22;41.09;98965.41;5086755;28;20071;-74
2023/07/15 09:28:59;;;;;;;5.00;3.45;;;;;;;28.35;39.92;98981.78;5086912;28;20060;-73
2023/07/15 09:31:27;;;;;;;5.93;3.47;;;;;;;28.52;40.02;98967.78;5088088;28;20311;-74
2023/07/15 09:34:03;;;;;;;6.85;3.70;;;;;;;28.61;40.03;98977.44;5087407;28;20048;-74
2023/07/15 09:36:32;;;;;;;4.55;3.60;;;;;;;28.55;40.31;98973.66;5086007;28;20048;-73
2023/07/15 09:39:12;;;;;;;4.30;3.40;;;;;;;28.46;40.29;98969.47;5086242;28;20056;-73
2023/07/15 09:41:39;;;;;;;6.32;3.78;;;;;;;28.20;40.00;98906.75;5086473;28;20048;-73
2023/07/15 09:44:06;;;;;;;6.18;3.40;;;;;;;28.84;39.60;98975.13;5087208;28;20247;-73
2023/07/15 09:46:33;;;;;;;6.72;4.00;;;;;;;28.90;40.11;98974.28;5087115;28;20044;-74
2023/07/15 09:49:00;;;;;;;4.10;3.47;;;;;;;28.66;39.48;98921.22;5086333;28;20052;-74
2023/07/15 09:51:28;;;;;;;4.40;3.70;;;;;;;28.89;39.62;98964.41;5087367;28;20097;-74
2023/07/15 09:53:56;;;;;;;4.15;3.55;;;;;;;28.91;39.13;98950.56;5087301;28;20055;-74
2023/07/15 09:56:28;;;;;;;5.45;3.28;;;;;;;28.92;39.54;98964.00;5086590;28;20089;-74
2023/07/15 09:58:57;;;;;;;4.93;3.40;;;;;;;28.92;39.20;98974.91;5086396;28;20071;-74
2023/07/15 10:01:32;;;;;;;5.30;3.63;;;;;;;28.84;39.32;98933.38;5087185;28;20044;-74
2023/07/15 10:04:10;;;;;;;6.82;3.80;;;;;;;29.09;39.69;98967.13;5085470;28;20033;-73
2023/07/15 10:06:38;;;;;;;4.43;3.15;;;;;;;29.22;39.33;98961.66;5086840;28;20044;-74
2023/07/15 10:09:06;;;;;;;5.55;3.85;;;;;;;29.24;39.70;98940.44;5086745;28;20110;-74
2023/07/15 10:11:35;;;;;;;6.53;3.50;;;;;;;29.47;39.18;98956.31;5086960;28;20044;-73
2023/07/15 10:14:03;;;;;;;5.57;3.33;;;;;;;29.18;39.95;98954.94;5086127;28;20060;-74
2023/07/15 10:16:33;;;;;;;5.47;3.78;;;;;;;29.00;40.48;98961.03;5086839;28;20055;-74
2023/07/15 10:19:01;;;;;;;7.22;3.55;;;;;;;29.20;39.88;98957.47;5085404;28;20119;-73
2023/07/15 10:21:28;;;;;;;4.82;3.38;;;;;;;29.28;40.21;98957.22;5086129;28;20079;-74
2023/07/15 10:24:08;;;;;;;4.53;3.15;;;;;;;29.34;40.28;98962.66;5085475;28;20095;-74
2023/07/15 10:26:36;;;;;;;4.88;3.65;;;;;;;29.41;39.59;98949.00;5086850;28;20068;-73
2023/07/15 10:29:03;;;;;;;6.53;3.30;;;;;;;29.31;40.52;98951.34;5086607;28;20040;-73
2023/07/15 10:31:30;;;;;;;6.05;3.25;;;;;;;29.40;41.20;98952.78;5085541;28;20196;-74
2023/07/15 10:33:58;;;;;;;3.88;2.75;;;;;;;29.52;41.92;98947.47;5086297;28;20193;-73
2023/07/15 10:36:44;;;;;;;5.57;2.75;;;;;;;29.43;40.67;98949.63;5086033;28;20052;-73
2023/07/15 10:39:16;;;;;;;3.95;3.22;;;;;;;29.52;40.80;98952.94;5084869;28;20056;-73
2023/07/15 10:41:46;;;;;;;7.35;3.17;;;;;;;29.39;40.20;98941.03;5084985;28;20060;-72
2023/07/15 10:44:17;;;;;;;4.15;3.22;;;;;;;29.20;40.28;98924.72;5085849;28;20070;-72
2023/07/15 10:46:45;;;;;;;4.80;2.75;;;;;;;29.19;40.32;98923.03;5086068;28;20082;-72
2023/07/15 10:49:12;;;;;;;5.30;3.33;;;;;;;29.52;40.43;98942.03;5085862;28;20243;-73
2023/07/15 10:51:39;;;;;;;7.03;2.92;;;;;;;29.43;40.21;98905.09;5085910;28;20054;-73
2023/07/15 10:54:06;;;;;;;4.53;3.33;;;;;;;29.24;40.16;98895.94;5085523;28;20090;-73
2023/07/15 10:56:33;;;;;;;5.13;3.55;;;;;;;29.42;39.85;98936.19;5086305;28;20058;-74
2023/07/15 10:59:01;;;;;;;4.15;2.78;;;;;;;29.63;39.72;98931.28;5085697;28;20054;-74
2023/07/15 11:01:28;;;;;;;5.45;2.90;;;;;;;29.70;39.93;98918.44;5085678;28;20055;-75
2023/07/15 11:04:04;;;;;;;4.78;3.45;;;;;;;29.77;39.45;98921.13;5085574;28;20063;-76
2023/07/15 11:06:31;;;;;;;4.88;3.50;;;;;;;29.57;39.63;98929.41;5086158;28;20052;-74
2023/07/15 11:08:58;;;;;;;6.78;3.17;;;;;;;29.65;39.08;98915.53;5085187;28;20044;-75
2023/07/15 11:11:25;;;;;;;4.22;3.08;;;;;;;29.69;38.58;98926.84;5085295;28;20036;-75
2023/07/15 11:13:51;;;;;;;11.05;3.33;;;;;;;29.48;39.37;98919.78;5084938;28;20119;-74
2023/07/15 11:16:20;;;;;;;4.10;2.90;;;;;;;29.53;38.95;98909.03;5085298;28;20086;-74
2023/07/15 11:18:47;;;;;;;4.95;3.53;;;;;;;29.47;39.54;98925.47;5085990;28;20036;-74
2023/07/15 11:21:13;;;;;;;4.35;3.20;;;;;;;29.57;39.99;98917.63;5085158;28;20083;-74
2023/07/15 11:23:43;;;;;;;4.63;2.97;;;;;;;29.34;39.26;98916.28;5085509;28;20251;-74
2023/07/15 11:26:10;;;;;;;5.65;3.28;;;;;;;29.77;38.94;98912.09;5085744;28;20052;-74
2023/07/15 11:28:47;;;;;;;4.50;2.72;;;;;;;29.49;39.08;98916.00;5085510;28;20089;-73
2023/07/15 11:31:14;;;;;;;5.20;3.30;;;;;;;29.39;38.84;98911.00;5084509;28;20067;-74
2023/07/15 11:33:42;;;;;;;6.13;2.92;;;;;;;28.99;38.63;98817.53;5085527;28;20044;-74
2023/07/15 11:36:08;;;;;;;5.05;3.05;;;;;;;29.62;39.28;98896.84;5085540;28;20082;-74
2023/07/15 11:38:35;;;;;;;5.20;3.20;;;;;;;29.21;38.84;98897.22;5084222;28;20052;-75